sensor_id;sensor_type;location;lat;lon;timestamp;P1;durP1;ratioP1;P2;durP2;ratioP2
78901;SDS011;70441;44.758;37.686;2024-03-06T00:00:45;25.85;;;13.30;;
78901;SDS011;70441;44.758;37.686;2024-03-06T00:01:47;27.25;;;14.20;;
78901;SDS011;70441;44.758;37.686;2024-03-06T00:02:48;25.17;;;13.63;;
78901;SDS011;70441;44.758;37.686;2024-03-06T00:03:50;25.95;;;13.48;;
78901;SDS011;70441;44.758;37.686;2024-03-06T00:04:51;27.27;;;13.30;;
78901;SDS011;70441;44.758;37.686;2024-03-06T00:05:52;23.92;;;13.25;;
78901;SDS011;70441;44.758;37.686;2024-03-06T00:06:54;30.38;;;13.90;;
78901;SDS011;70441;44.758;37.686;2024-03-06T00:07:56;25.92;;;13.00;;
78901;SDS011;70441;44.758;37.686;2024-03-06T00:08:57;28.98;;;13.88;;
78901;SDS011;70441;44.758;37.686;2024-03-06T00:09:59;24.13;;;13.48;;
78901;SDS011;70441;44.758;37.686;2024-03-06T00:11:00;28.80;;;13.32;;
78901;SDS011;70441;44.758;37.686;2024-03-06T00:12:02;24.83;;;13.70;;
78901;SDS011;70441;44.758;37.686;2024-03-06T00:13:03;27.63;;;13.13;;
78901;SDS011;70441;44.758;37.686;2024-03-06T00:14:05;28.48;;;11.93;;
78901;SDS011;70441;44.758;37.686;2024-03-06T00:15:07;27.13;;;13.57;;
78901;SDS011;70441;44.758;37.686;2024-03-06T00:16:09;25.30;;;15.38;;
78901;SDS011;70441;44.758;37.686;2024-03-06T00:17:10;28.30;;;13.35;;
78901;SDS011;70441;44.758;37.686;2024-03-06T00:18:11;31.50;;;13.82;;
78901;SDS011;70441;44.758;37.686;2024-03-06T00:19:31;25.95;;;13.32;;
78901;SDS011;70441;44.758;37.686;2024-03-06T00:20:32;26.70;;;13.63;;
78901;SDS011;70441;44.758;37.686;2024-03-06T00:21:34;25.92;;;13.07;;
78901;SDS011;70441;44.758;37.686;2024-03-06T00:22:37;29.75;;;14.40;;
78901;SDS011;70441;44.758;37.686;2024-03-06T00:23:38;24.65;;;13.57;;
78901;SDS011;70441;44.758;37.686;2024-03-06T00:24:40;25.25;;;13.00;;
78901;SDS011;70441;44.758;37.686;2024-03-06T00:25:41;24.08;;;13.15;;
78901;SDS011;70441;44.758;37.686;2024-03-06T00:26:45;27.05;;;13.45;;
78901;SDS011;70441;44.758;37.686;2024-03-06T00:27:48;26.65;;;12.90;;
78901;SDS011;70441;44.758;37.686;2024-03-06T00:28:49;24.27;;;12.98;;
78901;SDS011;70441;44.758;37.686;2024-03-06T00:29:51;23.70;;;12.48;;
78901;SDS011;70441;44.758;37.686;2024-03-06T00:30:52;25.50;;;12.65;;
78901;SDS011;70441;44.758;37.686;2024-03-06T00:31:53;25.92;;;12.32;;
78901;SDS011;70441;44.758;37.686;2024-03-06T00:32:55;26.25;;;12.63;;
78901;SDS011;70441;44.758;37.686;2024-03-06T00:33:56;27.73;;;12.68;;
78901;SDS011;70441;44.758;37.686;2024-03-06T00:34:58;24.23;;;12.02;;
78901;SDS011;70441;44.758;37.686;2024-03-06T00:35:59;24.48;;;12.70;;
78901;SDS011;70441;44.758;37.686;2024-03-06T00:37:00;24.50;;;14.68;;
78901;SDS011;70441;44.758;37.686;2024-03-06T00:38:02;26.92;;;13.50;;
78901;SDS011;70441;44.758;37.686;2024-03-06T00:39:04;25.70;;;13.95;;
78901;SDS011;70441;44.758;37.686;2024-03-06T00:40:05;25.95;;;12.82;;
78901;SDS011;70441;44.758;37.686;2024-03-06T00:41:07;24.90;;;12.43;;
78901;SDS011;70441;44.758;37.686;2024-03-06T00:42:12;27.50;;;13.07;;
78901;SDS011;70441;44.758;37.686;2024-03-06T00:44:16;25.05;;;11.65;;
78901;SDS011;70441;44.758;37.686;2024-03-06T00:45:18;26.17;;;12.45;;
78901;SDS011;70441;44.758;37.686;2024-03-06T00:46:19;33.30;;;13.07;;
78901;SDS011;70441;44.758;37.686;2024-03-06T00:47:21;26.73;;;12.50;;
78901;SDS011;70441;44.758;37.686;2024-03-06T00:48:22;29.25;;;14.27;;
78901;SDS011;70441;44.758;37.686;2024-03-06T00:49:24;25.00;;;13.15;;
78901;SDS011;70441;44.758;37.686;2024-03-06T00:50:25;28.77;;;13.88;;
78901;SDS011;70441;44.758;37.686;2024-03-06T00:51:26;24.27;;;12.77;;
78901;SDS011;70441;44.758;37.686;2024-03-06T00:52:28;26.95;;;13.18;;
78901;SDS011;70441;44.758;37.686;2024-03-06T00:53:29;26.88;;;14.30;;
78901;SDS011;70441;44.758;37.686;2024-03-06T00:54:31;28.48;;;14.15;;
78901;SDS011;70441;44.758;37.686;2024-03-06T00:55:32;25.33;;;13.07;;
78901;SDS011;70441;44.758;37.686;2024-03-06T00:56:37;24.55;;;13.07;;
78901;SDS011;70441;44.758;37.686;2024-03-06T00:57:41;26.48;;;13.15;;
78901;SDS011;70441;44.758;37.686;2024-03-06T00:58:43;24.92;;;13.63;;
78901;SDS011;70441;44.758;37.686;2024-03-06T00:59:44;27.40;;;13.77;;
78901;SDS011;70441;44.758;37.686;2024-03-06T01:00:45;26.10;;;12.93;;
78901;SDS011;70441;44.758;37.686;2024-03-06T01:01:47;29.40;;;13.75;;
78901;SDS011;70441;44.758;37.686;2024-03-06T01:02:48;28.90;;;13.85;;
78901;SDS011;70441;44.758;37.686;2024-03-06T01:03:50;23.98;;;13.57;;
78901;SDS011;70441;44.758;37.686;2024-03-06T01:04:51;31.30;;;13.45;;
78901;SDS011;70441;44.758;37.686;2024-03-06T01:05:52;25.98;;;14.02;;
78901;SDS011;70441;44.758;37.686;2024-03-06T01:06:54;29.98;;;13.90;;
78901;SDS011;70441;44.758;37.686;2024-03-06T01:07:55;28.08;;;13.48;;
78901;SDS011;70441;44.758;37.686;2024-03-06T01:08:57;33.25;;;13.40;;
78901;SDS011;70441;44.758;37.686;2024-03-06T01:09:59;28.48;;;13.50;;
78901;SDS011;70441;44.758;37.686;2024-03-06T01:11:01;25.00;;;12.98;;
78901;SDS011;70441;44.758;37.686;2024-03-06T01:12:05;24.75;;;12.85;;
78901;SDS011;70441;44.758;37.686;2024-03-06T01:13:06;27.40;;;13.73;;
78901;SDS011;70441;44.758;37.686;2024-03-06T01:14:11;26.48;;;14.10;;
78901;SDS011;70441;44.758;37.686;2024-03-06T01:15:12;30.25;;;14.02;;
78901;SDS011;70441;44.758;37.686;2024-03-06T01:16:14;31.73;;;13.98;;
78901;SDS011;70441;44.758;37.686;2024-03-06T01:17:15;27.48;;;13.85;;
78901;SDS011;70441;44.758;37.686;2024-03-06T01:18:17;23.83;;;12.75;;
78901;SDS011;70441;44.758;37.686;2024-03-06T01:19:18;28.42;;;14.57;;
78901;SDS011;70441;44.758;37.686;2024-03-06T01:20:20;30.83;;;16.42;;
78901;SDS011;70441;44.758;37.686;2024-03-06T01:21:22;26.75;;;13.40;;
78901;SDS011;70441;44.758;37.686;2024-03-06T01:22:23;30.60;;;14.45;;
78901;SDS011;70441;44.758;37.686;2024-03-06T01:23:25;30.90;;;14.25;;
78901;SDS011;70441;44.758;37.686;2024-03-06T01:24:26;28.77;;;14.93;;
78901;SDS011;70441;44.758;37.686;2024-03-06T01:25:28;27.10;;;14.13;;
78901;SDS011;70441;44.758;37.686;2024-03-06T01:26:29;24.55;;;13.77;;
78901;SDS011;70441;44.758;37.686;2024-03-06T01:27:30;29.42;;;13.48;;
78901;SDS011;70441;44.758;37.686;2024-03-06T01:28:32;29.75;;;13.90;;
78901;SDS011;70441;44.758;37.686;2024-03-06T01:29:34;32.13;;;14.55;;
78901;SDS011;70441;44.758;37.686;2024-03-06T01:30:35;25.00;;;13.63;;
78901;SDS011;70441;44.758;37.686;2024-03-06T01:31:37;27.27;;;14.68;;
78901;SDS011;70441;44.758;37.686;2024-03-06T01:32:38;32.10;;;15.40;;
78901;SDS011;70441;44.758;37.686;2024-03-06T01:33:39;26.70;;;13.50;;
78901;SDS011;70441;44.758;37.686;2024-03-06T01:34:41;30.42;;;13.93;;
78901;SDS011;70441;44.758;37.686;2024-03-06T01:35:42;25.45;;;14.25;;
78901;SDS011;70441;44.758;37.686;2024-03-06T01:36:44;27.92;;;15.77;;
78901;SDS011;70441;44.758;37.686;2024-03-06T01:37:45;29.02;;;14.35;;
78901;SDS011;70441;44.758;37.686;2024-03-06T01:38:46;25.80;;;14.02;;
78901;SDS011;70441;44.758;37.686;2024-03-06T01:39:48;25.92;;;14.25;;
78901;SDS011;70441;44.758;37.686;2024-03-06T01:40:49;28.63;;;15.02;;
78901;SDS011;70441;44.758;37.686;2024-03-06T01:41:51;31.40;;;14.38;;
78901;SDS011;70441;44.758;37.686;2024-03-06T01:42:52;31.63;;;14.85;;
78901;SDS011;70441;44.758;37.686;2024-03-06T01:43:54;27.45;;;14.48;;
78901;SDS011;70441;44.758;37.686;2024-03-06T01:44:55;31.33;;;14.77;;
78901;SDS011;70441;44.758;37.686;2024-03-06T01:45:57;28.02;;;15.35;;
78901;SDS011;70441;44.758;37.686;2024-03-06T01:46:58;30.98;;;15.77;;
78901;SDS011;70441;44.758;37.686;2024-03-06T01:47:59;29.65;;;15.15;;
78901;SDS011;70441;44.758;37.686;2024-03-06T01:49:01;32.33;;;15.43;;
78901;SDS011;70441;44.758;37.686;2024-03-06T01:50:03;30.85;;;15.57;;
78901;SDS011;70441;44.758;37.686;2024-03-06T01:51:09;27.05;;;14.65;;
78901;SDS011;70441;44.758;37.686;2024-03-06T01:52:12;29.80;;;13.82;;
78901;SDS011;70441;44.758;37.686;2024-03-06T01:53:16;27.67;;;14.57;;
78901;SDS011;70441;44.758;37.686;2024-03-06T01:54:19;30.88;;;15.25;;
78901;SDS011;70441;44.758;37.686;2024-03-06T01:55:21;32.17;;;14.73;;
78901;SDS011;70441;44.758;37.686;2024-03-06T01:57:25;28.35;;;13.90;;
78901;SDS011;70441;44.758;37.686;2024-03-06T01:58:26;28.10;;;13.82;;
78901;SDS011;70441;44.758;37.686;2024-03-06T01:59:29;26.70;;;13.55;;
78901;SDS011;70441;44.758;37.686;2024-03-06T02:00:31;31.45;;;15.32;;
78901;SDS011;70441;44.758;37.686;2024-03-06T02:01:34;25.70;;;13.27;;
78901;SDS011;70441;44.758;37.686;2024-03-06T02:02:36;28.75;;;14.45;;
78901;SDS011;70441;44.758;37.686;2024-03-06T02:03:38;28.95;;;13.50;;
78901;SDS011;70441;44.758;37.686;2024-03-06T02:04:39;29.77;;;14.40;;
78901;SDS011;70441;44.758;37.686;2024-03-06T02:05:41;28.83;;;15.00;;
78901;SDS011;70441;44.758;37.686;2024-03-06T02:06:44;31.30;;;14.70;;
78901;SDS011;70441;44.758;37.686;2024-03-06T02:07:47;25.52;;;13.45;;
78901;SDS011;70441;44.758;37.686;2024-03-06T02:08:48;30.90;;;14.48;;
78901;SDS011;70441;44.758;37.686;2024-03-06T02:09:50;31.35;;;14.50;;
78901;SDS011;70441;44.758;37.686;2024-03-06T02:10:51;31.50;;;14.93;;
78901;SDS011;70441;44.758;37.686;2024-03-06T02:11:53;26.92;;;13.93;;
78901;SDS011;70441;44.758;37.686;2024-03-06T02:12:55;26.90;;;14.15;;
78901;SDS011;70441;44.758;37.686;2024-03-06T02:13:56;26.27;;;13.48;;
78901;SDS011;70441;44.758;37.686;2024-03-06T02:14:58;26.00;;;14.73;;
78901;SDS011;70441;44.758;37.686;2024-03-06T02:16:00;29.55;;;13.52;;
78901;SDS011;70441;44.758;37.686;2024-03-06T02:17:01;26.17;;;13.38;;
78901;SDS011;70441;44.758;37.686;2024-03-06T02:18:06;26.58;;;14.38;;
78901;SDS011;70441;44.758;37.686;2024-03-06T02:19:09;29.08;;;13.82;;
78901;SDS011;70441;44.758;37.686;2024-03-06T02:20:11;29.50;;;14.85;;
78901;SDS011;70441;44.758;37.686;2024-03-06T02:21:13;25.33;;;14.45;;
78901;SDS011;70441;44.758;37.686;2024-03-06T02:22:15;27.50;;;14.05;;
78901;SDS011;70441;44.758;37.686;2024-03-06T02:23:19;28.02;;;13.38;;
78901;SDS011;70441;44.758;37.686;2024-03-06T02:24:22;33.13;;;14.85;;
78901;SDS011;70441;44.758;37.686;2024-03-06T02:25:24;31.17;;;13.70;;
78901;SDS011;70441;44.758;37.686;2024-03-06T02:26:26;29.55;;;13.73;;
78901;SDS011;70441;44.758;37.686;2024-03-06T02:27:27;28.30;;;14.68;;
78901;SDS011;70441;44.758;37.686;2024-03-06T02:28:29;23.92;;;13.60;;
78901;SDS011;70441;44.758;37.686;2024-03-06T02:29:31;26.75;;;14.75;;
78901;SDS011;70441;44.758;37.686;2024-03-06T02:30:36;23.35;;;12.52;;
78901;SDS011;70441;44.758;37.686;2024-03-06T02:31:38;29.35;;;14.50;;
78901;SDS011;70441;44.758;37.686;2024-03-06T02:32:40;28.45;;;13.70;;
78901;SDS011;70441;44.758;37.686;2024-03-06T02:33:41;24.33;;;12.85;;
78901;SDS011;70441;44.758;37.686;2024-03-06T02:34:45;24.80;;;13.73;;
78901;SDS011;70441;44.758;37.686;2024-03-06T02:35:46;27.30;;;14.65;;
78901;SDS011;70441;44.758;37.686;2024-03-06T02:36:47;28.10;;;14.98;;
78901;SDS011;70441;44.758;37.686;2024-03-06T02:37:49;26.52;;;13.68;;
78901;SDS011;70441;44.758;37.686;2024-03-06T02:38:50;30.08;;;14.00;;
78901;SDS011;70441;44.758;37.686;2024-03-06T02:39:52;28.15;;;12.73;;
78901;SDS011;70441;44.758;37.686;2024-03-06T02:40:53;28.27;;;13.27;;
78901;SDS011;70441;44.758;37.686;2024-03-06T02:41:55;27.60;;;13.23;;
78901;SDS011;70441;44.758;37.686;2024-03-06T02:42:56;29.33;;;13.25;;
78901;SDS011;70441;44.758;37.686;2024-03-06T02:43:58;25.92;;;13.27;;
78901;SDS011;70441;44.758;37.686;2024-03-06T02:44:59;28.00;;;12.10;;
78901;SDS011;70441;44.758;37.686;2024-03-06T02:46:01;21.40;;;12.48;;
78901;SDS011;70441;44.758;37.686;2024-03-06T02:47:03;26.10;;;13.55;;
78901;SDS011;70441;44.758;37.686;2024-03-06T02:48:04;26.92;;;13.07;;
78901;SDS011;70441;44.758;37.686;2024-03-06T02:49:06;24.38;;;12.65;;
78901;SDS011;70441;44.758;37.686;2024-03-06T02:50:07;23.73;;;11.15;;
78901;SDS011;70441;44.758;37.686;2024-03-06T02:51:09;28.73;;;12.35;;
78901;SDS011;70441;44.758;37.686;2024-03-06T02:52:10;24.77;;;11.35;;
78901;SDS011;70441;44.758;37.686;2024-03-06T02:53:12;27.45;;;12.45;;
78901;SDS011;70441;44.758;37.686;2024-03-06T02:54:13;22.38;;;12.15;;
78901;SDS011;70441;44.758;37.686;2024-03-06T02:55:15;24.25;;;11.98;;
78901;SDS011;70441;44.758;37.686;2024-03-06T02:56:17;19.95;;;11.10;;
78901;SDS011;70441;44.758;37.686;2024-03-06T02:58:20;25.38;;;11.25;;
78901;SDS011;70441;44.758;37.686;2024-03-06T02:59:21;23.63;;;11.20;;
78901;SDS011;70441;44.758;37.686;2024-03-06T03:00:23;24.38;;;11.30;;
78901;SDS011;70441;44.758;37.686;2024-03-06T03:01:24;21.58;;;11.60;;
78901;SDS011;70441;44.758;37.686;2024-03-06T03:02:26;25.92;;;12.38;;
78901;SDS011;70441;44.758;37.686;2024-03-06T03:03:27;25.73;;;12.15;;
78901;SDS011;70441;44.758;37.686;2024-03-06T03:04:29;22.42;;;11.82;;
78901;SDS011;70441;44.758;37.686;2024-03-06T03:05:30;23.08;;;12.15;;
78901;SDS011;70441;44.758;37.686;2024-03-06T03:06:32;23.23;;;12.05;;
78901;SDS011;70441;44.758;37.686;2024-03-06T03:07:33;25.55;;;12.73;;
78901;SDS011;70441;44.758;37.686;2024-03-06T03:08:36;27.45;;;12.90;;
78901;SDS011;70441;44.758;37.686;2024-03-06T03:09:39;27.70;;;12.15;;
78901;SDS011;70441;44.758;37.686;2024-03-06T03:10:40;24.52;;;13.20;;
78901;SDS011;70441;44.758;37.686;2024-03-06T03:11:42;23.58;;;11.77;;
78901;SDS011;70441;44.758;37.686;2024-03-06T03:12:45;32.92;;;12.45;;
78901;SDS011;70441;44.758;37.686;2024-03-06T03:13:46;27.30;;;12.82;;
78901;SDS011;70441;44.758;37.686;2024-03-06T03:14:48;25.20;;;13.05;;
78901;SDS011;70441;44.758;37.686;2024-03-06T03:15:49;25.88;;;12.45;;
78901;SDS011;70441;44.758;37.686;2024-03-06T03:16:52;20.02;;;11.40;;
78901;SDS011;70441;44.758;37.686;2024-03-06T03:18:55;24.35;;;11.68;;
78901;SDS011;70441;44.758;37.686;2024-03-06T03:19:57;28.10;;;12.88;;
78901;SDS011;70441;44.758;37.686;2024-03-06T03:20:58;23.75;;;12.05;;
78901;SDS011;70441;44.758;37.686;2024-03-06T03:22:00;26.70;;;13.38;;
78901;SDS011;70441;44.758;37.686;2024-03-06T03:23:04;25.33;;;12.48;;
78901;SDS011;70441;44.758;37.686;2024-03-06T03:24:12;23.45;;;13.32;;
78901;SDS011;70441;44.758;37.686;2024-03-06T03:25:14;27.58;;;13.25;;
78901;SDS011;70441;44.758;37.686;2024-03-06T03:26:15;25.02;;;12.90;;
78901;SDS011;70441;44.758;37.686;2024-03-06T03:27:17;23.30;;;12.95;;
78901;SDS011;70441;44.758;37.686;2024-03-06T03:28:18;28.65;;;12.90;;
78901;SDS011;70441;44.758;37.686;2024-03-06T03:29:20;27.65;;;13.93;;
78901;SDS011;70441;44.758;37.686;2024-03-06T03:30:21;26.17;;;14.73;;
78901;SDS011;70441;44.758;37.686;2024-03-06T03:31:23;26.80;;;14.18;;
78901;SDS011;70441;44.758;37.686;2024-03-06T03:32:24;24.95;;;13.63;;
78901;SDS011;70441;44.758;37.686;2024-03-06T03:33:26;26.55;;;12.63;;
78901;SDS011;70441;44.758;37.686;2024-03-06T03:34:27;27.50;;;13.68;;
78901;SDS011;70441;44.758;37.686;2024-03-06T03:35:28;28.77;;;13.90;;
78901;SDS011;70441;44.758;37.686;2024-03-06T03:36:30;23.85;;;13.13;;
78901;SDS011;70441;44.758;37.686;2024-03-06T03:37:32;24.73;;;13.25;;
78901;SDS011;70441;44.758;37.686;2024-03-06T03:39:39;23.75;;;11.95;;
78901;SDS011;70441;44.758;37.686;2024-03-06T03:40:40;29.63;;;13.00;;
78901;SDS011;70441;44.758;37.686;2024-03-06T03:41:45;30.77;;;13.95;;
78901;SDS011;70441;44.758;37.686;2024-03-06T03:42:47;26.60;;;13.95;;
78901;SDS011;70441;44.758;37.686;2024-03-06T03:43:48;29.17;;;14.27;;
78901;SDS011;70441;44.758;37.686;2024-03-06T03:44:50;30.10;;;14.20;;
78901;SDS011;70441;44.758;37.686;2024-03-06T03:45:51;27.40;;;13.23;;
78901;SDS011;70441;44.758;37.686;2024-03-06T03:46:53;30.83;;;14.20;;
78901;SDS011;70441;44.758;37.686;2024-03-06T03:47:54;28.80;;;12.77;;
78901;SDS011;70441;44.758;37.686;2024-03-06T03:48:56;30.65;;;14.93;;
78901;SDS011;70441;44.758;37.686;2024-03-06T03:49:57;32.05;;;15.65;;
78901;SDS011;70441;44.758;37.686;2024-03-06T03:51:00;35.92;;;15.95;;
78901;SDS011;70441;44.758;37.686;2024-03-06T03:52:01;31.35;;;15.15;;
78901;SDS011;70441;44.758;37.686;2024-03-06T03:53:04;30.20;;;14.90;;
78901;SDS011;70441;44.758;37.686;2024-03-06T03:54:05;35.70;;;15.93;;
78901;SDS011;70441;44.758;37.686;2024-03-06T03:55:12;28.25;;;15.27;;
78901;SDS011;70441;44.758;37.686;2024-03-06T03:56:13;36.10;;;16.20;;
78901;SDS011;70441;44.758;37.686;2024-03-06T03:57:15;34.22;;;15.60;;
78901;SDS011;70441;44.758;37.686;2024-03-06T03:58:18;32.25;;;15.13;;
78901;SDS011;70441;44.758;37.686;2024-03-06T03:59:19;31.70;;;16.48;;
78901;SDS011;70441;44.758;37.686;2024-03-06T04:00:20;32.38;;;16.85;;
78901;SDS011;70441;44.758;37.686;2024-03-06T04:01:24;30.98;;;17.00;;
78901;SDS011;70441;44.758;37.686;2024-03-06T04:02:26;32.97;;;17.60;;
78901;SDS011;70441;44.758;37.686;2024-03-06T04:03:27;38.97;;;16.88;;
78901;SDS011;70441;44.758;37.686;2024-03-06T04:04:29;38.83;;;16.73;;
78901;SDS011;70441;44.758;37.686;2024-03-06T04:05:30;38.65;;;18.60;;
78901;SDS011;70441;44.758;37.686;2024-03-06T04:06:32;39.92;;;18.20;;
78901;SDS011;70441;44.758;37.686;2024-03-06T04:07:33;32.75;;;16.20;;
78901;SDS011;70441;44.758;37.686;2024-03-06T04:08:35;39.72;;;17.40;;
78901;SDS011;70441;44.758;37.686;2024-03-06T04:09:36;35.33;;;17.75;;
78901;SDS011;70441;44.758;37.686;2024-03-06T04:10:38;29.65;;;16.30;;
78901;SDS011;70441;44.758;37.686;2024-03-06T04:11:40;38.58;;;17.88;;
78901;SDS011;70441;44.758;37.686;2024-03-06T04:12:42;33.30;;;15.35;;
78901;SDS011;70441;44.758;37.686;2024-03-06T04:13:43;33.95;;;16.33;;
78901;SDS011;70441;44.758;37.686;2024-03-06T04:14:44;33.70;;;15.80;;
78901;SDS011;70441;44.758;37.686;2024-03-06T04:15:46;37.22;;;17.10;;
78901;SDS011;70441;44.758;37.686;2024-03-06T04:16:47;36.78;;;16.10;;
78901;SDS011;70441;44.758;37.686;2024-03-06T04:17:49;37.03;;;16.65;;
78901;SDS011;70441;44.758;37.686;2024-03-06T04:18:51;39.08;;;17.70;;
78901;SDS011;70441;44.758;37.686;2024-03-06T04:19:52;33.20;;;18.65;;
78901;SDS011;70441;44.758;37.686;2024-03-06T04:20:54;28.38;;;13.48;;
78901;SDS011;70441;44.758;37.686;2024-03-06T04:21:55;35.30;;;16.92;;
78901;SDS011;70441;44.758;37.686;2024-03-06T04:22:57;35.85;;;15.82;;
78901;SDS011;70441;44.758;37.686;2024-03-06T04:23:58;38.33;;;17.65;;
78901;SDS011;70441;44.758;37.686;2024-03-06T04:24:59;34.85;;;17.65;;
78901;SDS011;70441;44.758;37.686;2024-03-06T04:26:01;32.47;;;15.93;;
78901;SDS011;70441;44.758;37.686;2024-03-06T04:27:03;37.75;;;17.33;;
78901;SDS011;70441;44.758;37.686;2024-03-06T04:28:05;35.90;;;18.30;;
78901;SDS011;70441;44.758;37.686;2024-03-06T04:29:08;37.55;;;17.88;;
78901;SDS011;70441;44.758;37.686;2024-03-06T04:30:10;37.08;;;17.05;;
78901;SDS011;70441;44.758;37.686;2024-03-06T04:31:11;39.03;;;19.33;;
78901;SDS011;70441;44.758;37.686;2024-03-06T04:32:13;35.47;;;17.73;;
78901;SDS011;70441;44.758;37.686;2024-03-06T04:33:14;38.40;;;18.45;;
78901;SDS011;70441;44.758;37.686;2024-03-06T04:34:15;35.17;;;17.40;;
78901;SDS011;70441;44.758;37.686;2024-03-06T04:35:17;39.17;;;18.17;;
78901;SDS011;70441;44.758;37.686;2024-03-06T04:36:18;38.70;;;16.85;;
78901;SDS011;70441;44.758;37.686;2024-03-06T04:37:19;43.53;;;18.55;;
78901;SDS011;70441;44.758;37.686;2024-03-06T04:38:21;34.03;;;17.42;;
78901;SDS011;70441;44.758;37.686;2024-03-06T04:39:22;41.90;;;19.02;;
78901;SDS011;70441;44.758;37.686;2024-03-06T04:40:23;31.35;;;18.23;;
78901;SDS011;70441;44.758;37.686;2024-03-06T04:42:27;29.63;;;14.70;;
78901;SDS011;70441;44.758;37.686;2024-03-06T04:43:28;38.92;;;16.85;;
78901;SDS011;70441;44.758;37.686;2024-03-06T04:44:33;37.25;;;17.45;;
78901;SDS011;70441;44.758;37.686;2024-03-06T04:45:35;37.72;;;18.35;;
78901;SDS011;70441;44.758;37.686;2024-03-06T04:46:36;40.38;;;18.33;;
78901;SDS011;70441;44.758;37.686;2024-03-06T04:47:38;37.33;;;18.88;;
78901;SDS011;70441;44.758;37.686;2024-03-06T04:48:39;35.00;;;18.60;;
78901;SDS011;70441;44.758;37.686;2024-03-06T04:49:41;34.10;;;15.73;;
78901;SDS011;70441;44.758;37.686;2024-03-06T04:51:46;33.22;;;17.38;;
78901;SDS011;70441;44.758;37.686;2024-03-06T04:52:47;35.53;;;18.48;;
78901;SDS011;70441;44.758;37.686;2024-03-06T04:53:48;35.90;;;17.92;;
78901;SDS011;70441;44.758;37.686;2024-03-06T04:54:51;37.53;;;18.08;;
78901;SDS011;70441;44.758;37.686;2024-03-06T04:55:53;34.97;;;16.85;;
78901;SDS011;70441;44.758;37.686;2024-03-06T04:56:55;33.55;;;13.93;;
78901;SDS011;70441;44.758;37.686;2024-03-06T04:57:56;36.60;;;17.83;;
78901;SDS011;70441;44.758;37.686;2024-03-06T04:58:58;40.53;;;19.05;;
78901;SDS011;70441;44.758;37.686;2024-03-06T05:00:07;35.70;;;15.70;;
78901;SDS011;70441;44.758;37.686;2024-03-06T05:01:09;41.42;;;18.55;;
78901;SDS011;70441;44.758;37.686;2024-03-06T05:02:11;38.97;;;17.88;;
78901;SDS011;70441;44.758;37.686;2024-03-06T05:03:12;34.00;;;16.10;;
78901;SDS011;70441;44.758;37.686;2024-03-06T05:04:13;35.33;;;17.88;;
78901;SDS011;70441;44.758;37.686;2024-03-06T05:05:15;39.70;;;17.27;;
78901;SDS011;70441;44.758;37.686;2024-03-06T05:06:16;36.90;;;18.33;;
78901;SDS011;70441;44.758;37.686;2024-03-06T05:07:17;34.20;;;17.20;;
78901;SDS011;70441;44.758;37.686;2024-03-06T05:08:19;33.45;;;16.00;;
78901;SDS011;70441;44.758;37.686;2024-03-06T05:09:21;33.13;;;14.82;;
78901;SDS011;70441;44.758;37.686;2024-03-06T05:10:22;38.65;;;16.30;;
78901;SDS011;70441;44.758;37.686;2024-03-06T05:11:24;34.20;;;16.73;;
78901;SDS011;70441;44.758;37.686;2024-03-06T05:12:26;39.55;;;18.38;;
78901;SDS011;70441;44.758;37.686;2024-03-06T05:13:27;33.70;;;17.45;;
78901;SDS011;70441;44.758;37.686;2024-03-06T05:14:29;32.95;;;17.70;;
78901;SDS011;70441;44.758;37.686;2024-03-06T05:15:30;36.10;;;17.05;;
78901;SDS011;70441;44.758;37.686;2024-03-06T05:16:31;38.33;;;17.65;;
78901;SDS011;70441;44.758;37.686;2024-03-06T05:17:33;36.60;;;17.30;;
78901;SDS011;70441;44.758;37.686;2024-03-06T05:18:35;31.88;;;16.25;;
78901;SDS011;70441;44.758;37.686;2024-03-06T05:19:36;34.40;;;17.23;;
78901;SDS011;70441;44.758;37.686;2024-03-06T05:20:38;36.35;;;17.05;;
78901;SDS011;70441;44.758;37.686;2024-03-06T05:21:39;43.83;;;19.33;;
78901;SDS011;70441;44.758;37.686;2024-03-06T05:22:40;33.00;;;16.98;;
78901;SDS011;70441;44.758;37.686;2024-03-06T05:23:42;35.58;;;17.85;;
78901;SDS011;70441;44.758;37.686;2024-03-06T05:24:43;35.20;;;17.98;;
78901;SDS011;70441;44.758;37.686;2024-03-06T05:25:45;37.97;;;18.73;;
78901;SDS011;70441;44.758;37.686;2024-03-06T05:26:46;39.40;;;18.35;;
78901;SDS011;70441;44.758;37.686;2024-03-06T05:27:47;36.47;;;17.63;;
78901;SDS011;70441;44.758;37.686;2024-03-06T05:28:49;36.33;;;17.17;;
78901;SDS011;70441;44.758;37.686;2024-03-06T05:29:50;37.33;;;16.52;;
78901;SDS011;70441;44.758;37.686;2024-03-06T05:30:52;32.92;;;16.40;;
78901;SDS011;70441;44.758;37.686;2024-03-06T05:31:53;37.75;;;16.35;;
78901;SDS011;70441;44.758;37.686;2024-03-06T05:32:56;47.67;;;16.63;;
78901;SDS011;70441;44.758;37.686;2024-03-06T05:33:57;39.60;;;16.27;;
78901;SDS011;70441;44.758;37.686;2024-03-06T05:34:59;39.65;;;16.63;;
78901;SDS011;70441;44.758;37.686;2024-03-06T05:36:00;44.08;;;16.58;;
78901;SDS011;70441;44.758;37.686;2024-03-06T05:37:02;44.33;;;16.23;;
78901;SDS011;70441;44.758;37.686;2024-03-06T05:38:06;41.75;;;16.40;;
78901;SDS011;70441;44.758;37.686;2024-03-06T05:39:07;37.78;;;16.50;;
78901;SDS011;70441;44.758;37.686;2024-03-06T05:40:13;40.95;;;16.08;;
78901;SDS011;70441;44.758;37.686;2024-03-06T05:41:14;37.08;;;16.25;;
78901;SDS011;70441;44.758;37.686;2024-03-06T05:42:18;33.97;;;17.67;;
78901;SDS011;70441;44.758;37.686;2024-03-06T05:43:20;34.33;;;15.77;;
78901;SDS011;70441;44.758;37.686;2024-03-06T05:44:21;30.20;;;15.52;;
78901;SDS011;70441;44.758;37.686;2024-03-06T05:45:23;30.77;;;15.77;;
78901;SDS011;70441;44.758;37.686;2024-03-06T05:46:24;27.70;;;15.38;;
78901;SDS011;70441;44.758;37.686;2024-03-06T05:47:26;26.15;;;14.38;;
78901;SDS011;70441;44.758;37.686;2024-03-06T05:48:28;29.52;;;14.52;;
78901;SDS011;70441;44.758;37.686;2024-03-06T05:49:29;32.67;;;15.75;;
78901;SDS011;70441;44.758;37.686;2024-03-06T05:50:31;32.78;;;15.18;;
78901;SDS011;70441;44.758;37.686;2024-03-06T05:51:32;30.58;;;13.93;;
78901;SDS011;70441;44.758;37.686;2024-03-06T05:52:34;26.52;;;14.93;;
78901;SDS011;70441;44.758;37.686;2024-03-06T05:53:39;24.25;;;14.48;;
78901;SDS011;70441;44.758;37.686;2024-03-06T05:54:43;30.35;;;15.85;;
78901;SDS011;70441;44.758;37.686;2024-03-06T05:55:44;30.98;;;16.05;;
78901;SDS011;70441;44.758;37.686;2024-03-06T05:56:47;31.85;;;16.33;;
78901;SDS011;70441;44.758;37.686;2024-03-06T05:57:50;30.00;;;15.57;;
78901;SDS011;70441;44.758;37.686;2024-03-06T05:58:51;25.02;;;13.90;;
78901;SDS011;70441;44.758;37.686;2024-03-06T06:00:55;26.90;;;14.10;;
78901;SDS011;70441;44.758;37.686;2024-03-06T06:01:57;26.52;;;13.70;;
78901;SDS011;70441;44.758;37.686;2024-03-06T06:02:58;40.17;;;17.13;;
78901;SDS011;70441;44.758;37.686;2024-03-06T06:04:00;26.60;;;13.65;;
78901;SDS011;70441;44.758;37.686;2024-03-06T06:06:03;39.58;;;14.60;;